PWSweather.com
Personal Weather Stations
Station Observations
PITCARMI1
La Serra, CarmignanoIT 59015

La SerraCarmignanoIT 59015

Lat: 43.804429, Lon: 11.027222

Elevation: 525

Station Type: Davis Vantage Vue

http://www.meteocarmignano.it

High Low Average
Temperature 73.6°F23.1°F 63.7°F17.6°F 69.8°F21.0°F
Dew Point 70.0°F21.1°F 61.3°F16.3°F 64.3°F17.9°F
Winds 44.9 mph W72.3 mph W Calm Calm 1.5 mph 2.4 mph
Wind Gusts 57.5 mph92.5 mph -- 2.0 mph3.2 mph
Humidity 96% 75% 83%
Pressure 30.06 in1017.90 in 29.96 in1014.60 in -
Precipitation 0.07 in1.80 in - -
Hour Temp Dew Point Humidity Winds Wind Gusts Pressure Precip Precip Rate Daily Precip Total
12:00 AM 68.4°F20.2°C 61.3°F16.3°C 78% Calm Calm -- 30.01 in1016.3 mb 0.00 in0.0 mm 0.00 in/hr0.0 mm/hr 0.00 in0.0 mm
12:30 AM 68.4°F20.2°C 61.3°F16.3°C 78% Calm Calm -- 30.01 in1016.3 mb 0.00 in0.0 mm 0.00 in/hr0.0 mm/hr 0.00 in0.0 mm
01:00 AM 68.6°F20.3°C 61.5°F16.4°C 78% Calm Calm -- 30.01 in1016.3 mb 0.00 in0.0 mm 0.00 in/hr0.0 mm/hr 0.00 in0.0 mm
01:30 AM 68.7°F20.4°C 61.6°F16.4°C 78% Calm Calm -- 30.01 in1016.3 mb 0.00 in0.0 mm 0.00 in/hr0.0 mm/hr 0.00 in0.0 mm
02:00 AM 68.7°F20.4°C 61.5°F16.4°C 78% Calm Calm -- 30.01 in1016.3 mb 0.00 in0.0 mm 0.00 in/hr0.0 mm/hr 0.00 in0.0 mm
02:30 AM 68.7°F20.4°C 61.6°F16.4°C 78% Calm Calm -- 30.00 in1015.9 mb 0.00 in0.0 mm 0.00 in/hr0.0 mm/hr 0.00 in0.0 mm
03:00 AM 68.5°F20.3°C 61.4°F16.3°C 78% Calm Calm -- 30.00 in1015.9 mb 0.00 in0.0 mm 0.00 in/hr0.0 mm/hr 0.00 in0.0 mm
03:30 AM 68.7°F20.4°C 61.6°F16.4°C 78% Calm Calm -- 29.99 in1015.6 mb 0.00 in0.0 mm 0.00 in/hr0.0 mm/hr 0.00 in0.0 mm
04:00 AM 68.8°F20.4°C 62.0°F16.7°C 79% 1.2 mph WNW1.9 kmh WNW 1.2 mph1.9 kmh 29.99 in1015.6 mb 0.00 in0.0 mm 0.00 in/hr0.0 mm/hr 0.00 in0.0 mm
04:30 AM 68.5°F20.3°C 61.7°F16.5°C 79% Calm Calm -- 29.99 in1015.6 mb 0.00 in0.0 mm 0.00 in/hr0.0 mm/hr 0.00 in0.0 mm
05:00 AM 69.0°F20.6°C 61.8°F16.6°C 78% Calm Calm -- 29.99 in1015.6 mb 0.00 in0.0 mm 0.00 in/hr0.0 mm/hr 0.00 in0.0 mm
05:30 AM 69.0°F20.6°C 61.9°F16.6°C 78% Calm Calm -- 29.99 in1015.6 mb 0.00 in0.0 mm 0.00 in/hr0.0 mm/hr 0.00 in0.0 mm
06:00 AM 67.9°F19.9°C 61.9°F16.6°C 81% Calm Calm -- 30.00 in1015.9 mb 0.00 in0.0 mm 0.00 in/hr0.0 mm/hr 0.00 in0.0 mm
06:30 AM 68.5°F20.3°C 62.8°F17.1°C 82% Calm Calm -- 30.00 in1015.9 mb 0.00 in0.0 mm 0.00 in/hr0.0 mm/hr 0.00 in0.0 mm
07:00 AM 68.9°F20.5°C 62.5°F16.9°C 80% Calm Calm -- 30.01 in1016.3 mb 0.00 in0.0 mm 0.00 in/hr0.0 mm/hr 0.00 in0.0 mm
07:30 AM 69.5°F20.8°C 62.4°F16.9°C 78% 1.2 mph W1.9 kmh W 1.2 mph1.9 kmh 30.02 in1016.6 mb 0.00 in0.0 mm 0.00 in/hr0.0 mm/hr 0.00 in0.0 mm
08:00 AM 69.9°F21.1°C 62.7°F17.1°C 78% 1.2 mph NE1.9 kmh NE 1.2 mph1.9 kmh 30.02 in1016.6 mb 0.00 in0.0 mm 0.00 in/hr0.0 mm/hr 0.00 in0.0 mm
08:30 AM 70.8°F21.6°C 63.6°F17.6°C 78% Calm Calm -- 30.03 in1016.9 mb 0.00 in0.0 mm 0.00 in/hr0.0 mm/hr 0.00 in0.0 mm
09:00 AM 71.5°F21.9°C 63.6°F17.6°C 76% Calm Calm -- 30.04 in1017.3 mb 0.00 in0.0 mm 0.00 in/hr0.0 mm/hr 0.00 in0.0 mm
09:30 AM 71.7°F22.1°C 63.4°F17.4°C 75% Calm Calm -- 30.03 in1016.9 mb 0.00 in0.0 mm 0.00 in/hr0.0 mm/hr 0.00 in0.0 mm
10:00 AM 70.8°F21.6°C 64.0°F17.8°C 79% Calm Calm -- 30.02 in1016.6 mb 0.00 in0.0 mm 0.00 in/hr0.0 mm/hr 0.00 in0.0 mm
10:30 AM 71.2°F21.8°C 63.6°F17.6°C 77% Calm Calm -- 30.03 in1016.9 mb 0.00 in0.0 mm 0.00 in/hr0.0 mm/hr 0.00 in0.0 mm
11:00 AM 71.0°F21.7°C 64.2°F17.9°C 79% Calm Calm -- 30.02 in1016.6 mb 0.00 in0.0 mm 0.00 in/hr0.0 mm/hr 0.00 in0.0 mm
11:30 AM 65.9°F18.8°C 61.9°F16.6°C 87% 44.9 mph W72.3 kmh W 57.5 mph92.5 kmh 30.04 in1017.3 mb 0.07 in1.8 mm 0.14 in/hr3.6 mm/hr 0.15 in3.8 mm
12:30 PM 63.7°F17.6°C 62.3°F16.8°C 95% 1.2 mph NW1.9 kmh NW 2.3 mph3.7 kmh 30.06 in1017.9 mb 0.00 in0.0 mm 0.00 in/hr0.0 mm/hr 1.21 in30.7 mm
01:00 PM 66.4°F19.1°C 65.3°F18.5°C 96% Calm Calm -- 30.05 in1017.6 mb 0.00 in0.0 mm 0.00 in/hr0.0 mm/hr 1.23 in31.2 mm
01:30 PM 68.8°F20.4°C 67.4°F19.7°C 95% Calm Calm -- 30.03 in1016.9 mb 0.00 in0.0 mm 0.00 in/hr0.0 mm/hr 1.23 in31.2 mm
02:00 PM 68.0°F20.0°C 66.2°F19.0°C 94% 2.3 mph WNW3.7 kmh WNW 3.5 mph5.6 kmh 30.05 in1017.6 mb 0.00 in0.0 mm 0.00 in/hr0.0 mm/hr 1.23 in31.2 mm
02:30 PM 70.0°F21.1°C 68.5°F20.3°C 95% Calm Calm 1.2 mph1.9 kmh 30.01 in1016.3 mb 0.00 in0.0 mm 0.00 in/hr0.0 mm/hr 1.23 in31.2 mm
03:00 PM 70.8°F21.6°C 69.3°F20.7°C 95% 1.2 mph NNE1.9 kmh NNE 1.2 mph1.9 kmh 30.00 in1015.9 mb 0.00 in0.0 mm 0.00 in/hr0.0 mm/hr 1.23 in31.2 mm
03:30 PM 71.8°F22.1°C 70.0°F21.1°C 94% 1.2 mph NW1.9 kmh NW 3.5 mph5.6 kmh 29.98 in1015.2 mb 0.00 in0.0 mm 0.00 in/hr0.0 mm/hr 1.23 in31.2 mm
04:00 PM 72.1°F22.3°C 69.6°F20.9°C 92% 1.2 mph WSW1.9 kmh WSW 2.3 mph3.7 kmh 29.96 in1014.6 mb 0.00 in0.0 mm 0.00 in/hr0.0 mm/hr 1.23 in31.2 mm
04:30 PM 71.9°F22.2°C 68.8°F20.4°C 90% 4.6 mph NW7.4 kmh NW 4.6 mph7.4 kmh 29.98 in1015.2 mb 0.00 in0.0 mm 0.00 in/hr0.0 mm/hr 1.23 in31.2 mm
05:00 PM 72.5°F22.5°C 66.0°F18.9°C 80% 5.8 mph NW9.3 kmh NW 8.1 mph13.0 kmh 29.99 in1015.6 mb 0.00 in0.0 mm 0.00 in/hr0.0 mm/hr 1.23 in31.2 mm
05:30 PM 73.3°F22.9°C 65.3°F18.5°C 76% 2.3 mph W3.7 kmh W 3.5 mph5.6 kmh 29.99 in1015.6 mb 0.00 in0.0 mm 0.00 in/hr0.0 mm/hr 1.23 in31.2 mm
06:00 PM 73.6°F23.1°C 65.6°F18.7°C 76% Calm Calm -- 29.99 in1015.6 mb 0.00 in0.0 mm 0.00 in/hr0.0 mm/hr 1.23 in31.2 mm
06:30 PM 73.3°F22.9°C 65.3°F18.5°C 76% Calm Calm -- 29.99 in1015.6 mb 0.00 in0.0 mm 0.00 in/hr0.0 mm/hr 1.23 in31.2 mm
07:00 PM 71.4°F21.9°C 65.6°F18.7°C 82% Calm Calm 1.2 mph1.9 kmh 30.00 in1015.9 mb 0.00 in0.0 mm 0.00 in/hr0.0 mm/hr 1.23 in31.2 mm
07:30 PM 71.8°F22.1°C 66.0°F18.9°C 82% Calm Calm 2.3 mph3.7 kmh 30.01 in1016.3 mb 0.00 in0.0 mm 0.00 in/hr0.0 mm/hr 1.23 in31.2 mm
08:00 PM 71.0°F21.7°C 65.9°F18.8°C 84% Calm Calm -- 30.03 in1016.9 mb 0.00 in0.0 mm 0.00 in/hr0.0 mm/hr 1.23 in31.2 mm
08:30 PM 70.2°F21.2°C 65.8°F18.8°C 86% Calm Calm -- 30.04 in1017.3 mb 0.00 in0.0 mm 0.00 in/hr0.0 mm/hr 1.23 in31.2 mm
09:00 PM 70.1°F21.2°C 65.7°F18.7°C 86% Calm Calm 1.2 mph1.9 kmh 30.04 in1017.3 mb 0.00 in0.0 mm 0.00 in/hr0.0 mm/hr 1.23 in31.2 mm
09:30 PM 68.9°F20.5°C 65.5°F18.6°C 89% Calm Calm -- 30.04 in1017.3 mb 0.00 in0.0 mm 0.00 in/hr0.0 mm/hr 1.23 in31.2 mm
10:00 PM 70.4°F21.3°C 66.0°F18.9°C 86% Calm Calm -- 30.04 in1017.3 mb 0.00 in0.0 mm 0.00 in/hr0.0 mm/hr 1.23 in31.2 mm
10:30 PM 69.7°F20.9°C 65.7°F18.7°C 87% Calm Calm -- 30.03 in1016.9 mb 0.00 in0.0 mm 0.00 in/hr0.0 mm/hr 1.23 in31.2 mm
11:00 PM 69.4°F20.8°C 66.0°F18.9°C 89% Calm Calm -- 30.02 in1016.6 mb 0.00 in0.0 mm 0.00 in/hr0.0 mm/hr 0.07 in1.8 mm
11:30 PM 69.1°F20.6°C 66.1°F18.9°C 90% Calm Calm -- 30.02 in1016.6 mb 0.00 in0.0 mm 0.00 in/hr0.0 mm/hr 0.07 in1.8 mm